createdAt,value
2023-04-21T00:01:40.014Z,23.97
2023-04-21T00:04:10.107Z,22.13
2023-04-21T00:06:37.922Z,21.87
2023-04-21T00:09:05.825Z,23.33
2023-04-21T00:11:33.576Z,21.50
2023-04-21T00:14:01.618Z,22.57
2023-04-21T00:16:30.885Z,21.80
2023-04-21T00:18:59.281Z,21.37
2023-04-21T00:21:27.096Z,22.50
2023-04-21T00:23:54.967Z,21.40
2023-04-21T00:26:22.827Z,22.87
2023-04-21T00:28:51.472Z,23.00
2023-04-21T00:31:19.627Z,21.47
2023-04-21T00:33:49.014Z,21.43
2023-04-21T00:36:16.844Z,22.73
2023-04-21T00:38:44.660Z,21.20
2023-04-21T00:41:12.416Z,22.27
2023-04-21T00:44:01.376Z,21.73
2023-04-21T00:46:29.666Z,22.20
2023-04-21T00:48:59.231Z,21.77
2023-04-21T00:51:29.981Z,22.27
2023-04-21T00:53:58.343Z,23.07
2023-04-21T00:56:27.160Z,23.07
2023-04-21T00:58:56.061Z,23.40
2023-04-21T01:01:24.336Z,22.33
2023-04-21T01:03:52.428Z,23.60
2023-04-21T01:06:21.695Z,22.93
2023-04-21T01:08:49.948Z,23.77
2023-04-21T01:11:18.379Z,22.83
2023-04-21T01:13:46.463Z,22.80
2023-04-21T01:16:18.358Z,23.63
2023-04-21T01:18:47.164Z,23.37
2023-04-21T01:21:15.441Z,24.00
2023-04-21T01:23:46.261Z,22.90
2023-04-21T01:26:14.227Z,23.43
2023-04-21T01:28:42.088Z,22.77
2023-04-21T01:31:11.588Z,23.63
2023-04-21T01:33:39.404Z,23.70
2023-04-21T01:36:07.906Z,23.30
2023-04-21T01:38:38.379Z,24.90
2023-04-21T01:41:07.786Z,24.33
2023-04-21T01:43:35.854Z,24.07
2023-04-21T01:46:04.099Z,24.40
2023-04-21T01:48:34.089Z,23.90
2023-04-21T01:51:02.188Z,23.67
2023-04-21T01:53:29.902Z,24.03
2023-04-21T01:55:57.813Z,23.30
2023-04-21T01:58:27.364Z,25.03
2023-04-21T02:00:55.197Z,23.30
2023-04-21T02:03:23.306Z,24.43
2023-04-21T02:05:51.671Z,24.90
2023-04-21T02:08:19.540Z,24.77
2023-04-21T02:10:47.521Z,24.13
2023-04-21T02:13:15.375Z,24.70
2023-04-21T02:15:44.719Z,25.53
2023-04-21T02:18:14.938Z,25.67
2023-04-21T02:20:42.895Z,24.67
2023-04-21T02:23:10.847Z,25.83
2023-04-21T02:25:38.774Z,25.40
2023-04-21T02:28:06.758Z,25.37
2023-04-21T02:30:35.904Z,26.23
2023-04-21T02:33:05.286Z,27.93
2023-04-21T02:35:33.697Z,26.80
2023-04-21T02:38:07.121Z,28.87
2023-04-21T02:40:35.038Z,30.50
2023-04-21T02:43:03.072Z,30.20
2023-04-21T02:45:30.947Z,30.40
2023-04-21T02:47:59.431Z,32.20
2023-04-21T02:50:28.769Z,30.00
2023-04-21T02:52:56.659Z,29.17
2023-04-21T02:55:25.178Z,32.03
2023-04-21T02:57:52.931Z,30.40
2023-04-21T03:00:23.711Z,33.13
2023-04-21T03:02:52.423Z,34.13
2023-04-21T03:05:21.102Z,32.57
2023-04-21T03:07:50.807Z,34.27
2023-04-21T03:10:19.526Z,33.77
2023-04-21T03:12:48.354Z,33.73
2023-04-21T03:15:17.304Z,32.53
2023-04-21T03:17:45.551Z,30.67
2023-04-21T03:20:13.446Z,31.13
2023-04-21T03:22:41.368Z,30.33
2023-04-21T03:25:11.883Z,29.00
2023-04-21T03:27:40.270Z,29.07
2023-04-21T03:30:09.463Z,29.50
2023-04-21T03:32:37.316Z,29.10
2023-04-21T03:35:05.604Z,28.93
2023-04-21T03:37:33.775Z,28.63
2023-04-21T03:40:01.723Z,29.47
2023-04-21T03:42:31.067Z,27.30
2023-04-21T03:45:03.111Z,28.20
2023-04-21T03:47:34.202Z,26.63
2023-04-21T03:50:02.002Z,26.93
2023-04-21T03:52:29.775Z,26.27
2023-04-21T03:54:57.692Z,28.17
2023-04-21T03:57:25.686Z,27.87
2023-04-21T03:59:54.984Z,27.10
2023-04-21T04:02:22.989Z,25.17
2023-04-21T04:04:51.099Z,27.10
2023-04-21T04:07:19.158Z,25.20
2023-04-21T04:09:47.004Z,26.17
2023-04-21T04:12:14.887Z,28.07
2023-04-21T04:14:42.813Z,24.87
2023-04-21T04:17:12.174Z,25.10
2023-04-21T04:19:40.234Z,26.03
2023-04-21T04:22:08.179Z,26.53
2023-04-21T04:24:36.706Z,26.53
2023-04-21T04:27:05.643Z,26.50
2023-04-21T04:29:33.799Z,26.03
2023-04-21T04:32:04.050Z,27.07
2023-04-21T04:34:37.437Z,26.13
2023-04-21T04:37:05.505Z,26.33
2023-04-21T04:39:33.847Z,26.83
2023-04-21T04:42:03.576Z,26.50
2023-04-21T04:44:31.929Z,26.77
2023-04-21T04:46:59.790Z,27.03
2023-04-21T04:49:28.511Z,27.57
2023-04-21T04:51:57.855Z,28.07
2023-04-21T04:54:25.813Z,26.27
2023-04-21T04:56:53.792Z,27.00
2023-04-21T04:59:27.049Z,27.13
2023-04-21T05:01:55.689Z,28.50
2023-04-21T05:04:23.951Z,26.67
2023-04-21T05:06:52.056Z,26.53
2023-04-21T05:09:21.618Z,27.33
2023-04-21T05:11:49.424Z,27.43
2023-04-21T05:14:17.606Z,26.23
2023-04-21T05:16:45.607Z,26.57
2023-04-21T05:19:13.602Z,25.70
2023-04-21T05:21:41.336Z,25.63
2023-04-21T05:24:09.417Z,25.90
2023-04-21T05:26:38.675Z,26.97
2023-04-21T05:29:06.513Z,27.37
2023-04-21T05:31:34.962Z,27.33
2023-04-21T05:34:02.814Z,27.13
2023-04-21T05:36:31.719Z,27.83
2023-04-21T05:38:59.515Z,25.93
2023-04-21T05:41:27.344Z,26.33
2023-04-21T05:43:56.844Z,26.87
2023-04-21T05:46:24.944Z,25.93
2023-04-21T05:48:52.865Z,24.80
2023-04-21T05:51:20.730Z,25.27
2023-04-21T05:53:48.505Z,25.87
2023-04-21T05:56:16.328Z,25.90
2023-04-21T05:58:44.041Z,26.80
2023-04-21T06:01:15.422Z,24.33
2023-04-21T06:03:43.517Z,26.30
2023-04-21T06:06:11.545Z,26.80
2023-04-21T06:08:39.380Z,26.47
2023-04-21T06:11:07.186Z,26.20
2023-04-21T06:13:36.401Z,24.87
2023-04-21T06:16:06.551Z,24.13
2023-04-21T06:18:36.205Z,25.87
2023-04-21T06:21:04.085Z,25.80
2023-04-21T06:23:31.866Z,25.87
2023-04-21T06:26:05.377Z,25.77
2023-04-21T06:28:33.633Z,26.90
2023-04-21T06:31:02.620Z,26.50
2023-04-21T06:33:31.257Z,26.00
2023-04-21T06:36:00.502Z,27.60
2023-04-21T06:38:28.215Z,27.93
2023-04-21T06:40:56.215Z,27.40
2023-04-21T06:43:24.221Z,27.70
2023-04-21T06:45:52.211Z,27.13
2023-04-21T06:48:20.052Z,26.60
2023-04-21T06:50:47.834Z,28.40
2023-04-21T06:53:18.176Z,26.80
2023-04-21T06:55:46.499Z,26.87
2023-04-21T06:58:14.597Z,27.13
2023-04-21T07:00:42.733Z,27.80
2023-04-21T07:03:10.738Z,28.27
2023-04-21T07:05:38.566Z,29.33
2023-04-21T07:08:07.361Z,27.93
2023-04-21T07:10:36.665Z,27.50
2023-04-21T07:13:04.603Z,29.43
2023-04-21T07:15:32.465Z,28.03
2023-04-21T07:18:00.299Z,27.60
2023-04-21T07:20:28.508Z,26.53
2023-04-21T07:22:56.724Z,30.60
2023-04-21T07:25:24.541Z,29.90
2023-04-21T07:27:54.133Z,28.53
2023-04-21T07:30:22.178Z,31.27
2023-04-21T07:32:50.138Z,29.30
2023-04-21T07:35:18.548Z,28.33
2023-04-21T07:37:46.798Z,28.40
2023-04-21T07:40:15.703Z,27.53
2023-04-21T07:42:43.728Z,26.23
2023-04-21T07:45:13.294Z,28.23
2023-04-21T07:47:41.328Z,28.53
2023-04-21T07:50:10.586Z,28.97
2023-04-21T07:52:38.586Z,27.23
2023-04-21T07:55:07.287Z,27.83
2023-04-21T07:57:39.501Z,26.10
2023-04-21T08:00:09.412Z,26.73
2023-04-21T08:02:41.898Z,25.97
2023-04-21T08:05:10.149Z,25.63
2023-04-21T08:07:39.337Z,24.33
2023-04-21T08:10:08.647Z,24.23
2023-04-21T08:12:36.426Z,25.67
2023-04-21T08:15:07.645Z,25.97
2023-04-21T08:17:36.154Z,25.30
2023-04-21T08:20:07.259Z,25.33
2023-04-21T08:22:36.168Z,25.10
2023-04-21T08:25:04.496Z,25.33
2023-04-21T08:27:32.329Z,25.43
2023-04-21T08:30:00.258Z,26.43
2023-04-21T08:32:28.113Z,25.50
2023-04-21T08:34:56.327Z,27.40
2023-04-21T08:37:26.123Z,26.60
2023-04-21T08:39:54.509Z,27.27
2023-04-21T08:42:22.446Z,25.80
2023-04-21T08:44:50.718Z,27.30
2023-04-21T08:47:20.418Z,25.00
2023-04-21T08:49:51.303Z,25.93
2023-04-21T08:52:19.533Z,25.77
2023-04-21T08:54:52.954Z,25.77
2023-04-21T08:57:20.745Z,25.53
2023-04-21T08:59:48.563Z,25.20
2023-04-21T09:02:17.568Z,21.87
2023-04-21T09:04:48.097Z,22.60
2023-04-21T09:07:33.250Z,23.57
2023-04-21T09:10:03.157Z,23.63
2023-04-21T09:12:31.435Z,20.60
2023-04-21T09:15:00.904Z,21.77
2023-04-21T09:17:32.628Z,21.10
2023-04-21T09:20:14.608Z,21.77
2023-04-21T09:22:42.902Z,22.63
2023-04-21T09:25:16.523Z,22.00
2023-04-21T09:27:44.316Z,22.93
2023-04-21T09:30:12.756Z,23.00
2023-04-21T09:32:41.681Z,21.90
2023-04-21T09:35:11.686Z,22.30
2023-04-21T09:37:40.272Z,21.90
2023-04-21T09:40:08.911Z,22.17
2023-04-21T09:42:40.132Z,20.17
2023-04-21T09:45:29.045Z,20.87
2023-04-21T09:48:00.801Z,20.27
2023-04-21T09:53:04.912Z,22.13
2023-04-21T09:55:34.325Z,20.57
2023-04-21T09:58:05.366Z,20.10
2023-04-21T10:00:39.190Z,20.17
2023-04-21T10:03:10.656Z,20.10
2023-04-21T10:05:42.186Z,20.90
2023-04-21T10:08:11.983Z,20.70
2023-04-21T10:10:40.678Z,19.13
2023-04-21T10:13:14.982Z,20.27
2023-04-21T10:15:43.365Z,19.00
2023-04-21T10:18:17.879Z,18.97
2023-04-21T10:20:54.009Z,17.57
2023-04-21T10:23:33.473Z,20.10
2023-04-21T10:26:13.287Z,20.50
2023-04-21T10:28:47.829Z,21.27
2023-04-21T10:31:30.518Z,18.60
2023-04-21T10:34:23.736Z,19.90
2023-04-21T10:37:12.863Z,20.30
2023-04-21T10:39:53.328Z,19.23
2023-04-21T10:42:39.090Z,20.43
2023-04-21T10:45:13.194Z,20.70
2023-04-21T10:47:44.472Z,21.70
2023-04-21T10:50:29.594Z,21.37
2023-04-21T10:52:59.503Z,21.57
2023-04-21T10:55:29.078Z,20.43
2023-04-21T10:57:59.100Z,21.73
2023-04-21T11:00:28.446Z,19.30
2023-04-21T11:02:58.106Z,18.83
2023-04-21T11:05:36.044Z,21.13
2023-04-21T11:08:08.875Z,21.30
2023-04-21T11:10:47.762Z,22.43
2023-04-21T11:13:15.550Z,21.27
2023-04-21T11:15:57.162Z,21.20
2023-04-21T11:18:34.266Z,20.63
2023-04-21T11:21:13.644Z,19.43
2023-04-21T11:23:42.691Z,19.83
2023-04-21T11:26:10.967Z,22.17
2023-04-21T11:28:41.536Z,21.00
2023-04-21T11:31:10.880Z,21.80
2023-04-21T11:33:40.165Z,21.57
2023-04-21T11:36:08.586Z,21.40
2023-04-21T11:38:40.975Z,22.30
2023-04-21T11:41:10.847Z,21.47
2023-04-21T11:43:39.305Z,21.97
2023-04-21T11:46:23.606Z,21.37
2023-04-21T11:49:00.097Z,20.87
2023-04-21T11:51:28.972Z,21.77
2023-04-21T11:53:56.860Z,20.40
2023-04-21T11:56:25.394Z,20.87
2023-04-21T11:58:54.036Z,20.40
2023-04-21T12:01:23.526Z,20.70
2023-04-21T12:03:56.372Z,20.97
2023-04-21T12:06:25.865Z,19.83
2023-04-21T12:08:58.618Z,20.63
2023-04-21T12:11:28.083Z,19.87
2023-04-21T12:13:58.306Z,18.53
2023-04-21T12:16:28.512Z,18.97
2023-04-21T12:18:57.863Z,18.67
2023-04-21T12:21:28.918Z,18.10
2023-04-21T12:23:57.161Z,15.40
2023-04-21T12:26:25.024Z,16.33
2023-04-21T12:28:53.407Z,17.13
2023-04-21T12:31:23.021Z,17.37
2023-04-21T12:33:52.679Z,18.20
2023-04-21T12:36:21.596Z,16.83
2023-04-21T12:38:49.725Z,16.57
2023-04-21T12:41:17.860Z,16.23
2023-04-21T12:43:45.597Z,16.70
2023-04-21T12:46:13.446Z,15.83
2023-04-21T12:48:41.232Z,15.20
2023-04-21T12:51:10.450Z,14.57
2023-04-21T12:53:38.135Z,14.53
2023-04-21T12:56:06.957Z,15.10
2023-04-21T12:58:34.902Z,14.20
2023-04-21T13:01:02.707Z,14.27
2023-04-21T13:03:30.783Z,14.50
2023-04-21T13:05:59.123Z,14.83
2023-04-21T13:08:28.322Z,14.33
2023-04-21T13:10:56.117Z,13.80
2023-04-21T13:13:24.399Z,13.70
2023-04-21T13:15:52.276Z,12.83
2023-04-21T13:18:20.265Z,13.40
2023-04-21T13:20:48.125Z,12.83
2023-04-21T13:23:16.366Z,13.23
2023-04-21T13:25:46.568Z,13.27
2023-04-21T13:28:14.915Z,12.53
2023-04-21T13:30:42.862Z,12.73
2023-04-21T13:33:10.980Z,12.80
2023-04-21T13:35:39.104Z,13.30
2023-04-21T13:38:07.726Z,13.20
2023-04-21T13:40:35.473Z,13.37
2023-04-21T13:43:04.784Z,13.40
2023-04-21T13:45:32.990Z,12.77
2023-04-21T13:48:00.740Z,13.40
2023-04-21T13:50:28.566Z,13.17
2023-04-21T13:52:56.359Z,12.10
2023-04-21T13:55:24.451Z,12.13
2023-04-21T13:57:53.923Z,12.37
2023-04-21T14:00:23.978Z,12.37
2023-04-21T14:02:51.877Z,12.17
2023-04-21T14:05:20.396Z,12.17
2023-04-21T14:07:48.344Z,12.17
2023-04-21T14:10:16.197Z,11.70
2023-04-21T14:12:45.455Z,12.33
2023-04-21T14:15:13.664Z,12.57
2023-04-21T14:17:43.245Z,12.37
2023-04-21T14:20:12.256Z,11.53
2023-04-21T14:22:40.100Z,12.33
2023-04-21T14:25:08.721Z,12.20
2023-04-21T14:27:36.784Z,10.77
2023-04-21T14:30:05.497Z,11.37
2023-04-21T14:32:33.482Z,11.63
2023-04-21T14:35:04.041Z,10.60
2023-04-21T14:37:31.892Z,10.73
2023-04-21T14:39:59.767Z,9.63
2023-04-21T14:42:27.563Z,10.97
2023-04-21T14:44:55.351Z,10.23
2023-04-21T14:47:23.549Z,9.33
2023-04-21T14:49:55.017Z,9.17
2023-04-21T14:52:26.728Z,8.93
2023-04-21T14:54:54.466Z,8.53
2023-04-21T14:57:22.688Z,7.07
2023-04-21T14:59:51.800Z,7.77
2023-04-21T15:02:20.787Z,8.03
2023-04-21T15:04:48.943Z,8.43
2023-04-21T15:07:19.808Z,7.63
2023-04-21T15:09:52.629Z,8.23
2023-04-21T15:12:20.742Z,8.60
2023-04-21T15:14:48.572Z,7.67
2023-04-21T15:17:16.576Z,8.30
2023-04-21T15:19:44.392Z,7.90
2023-04-21T15:22:12.619Z,7.83
2023-04-21T15:24:40.602Z,7.63
2023-04-21T15:27:09.686Z,6.60
2023-04-21T15:29:37.680Z,6.37
2023-04-21T15:32:05.814Z,6.13
2023-04-21T15:34:33.665Z,8.07
2023-04-21T15:37:01.609Z,8.10
2023-04-21T15:39:29.539Z,7.43
2023-04-21T15:41:59.407Z,6.70
2023-04-21T15:44:28.584Z,5.80
2023-04-21T15:46:56.864Z,5.60
2023-04-21T15:49:26.039Z,5.63
2023-04-21T15:51:54.180Z,6.00
2023-04-21T15:54:22.909Z,5.73
2023-04-21T15:56:51.014Z,6.00
2023-04-21T15:59:18.862Z,7.33
2023-04-21T16:01:48.090Z,5.70
2023-04-21T16:04:16.708Z,5.90
2023-04-21T16:06:44.803Z,5.80
2023-04-21T16:09:12.751Z,5.90
2023-04-21T16:11:40.662Z,6.10
2023-04-21T16:14:08.486Z,5.37
2023-04-21T16:16:37.524Z,5.50
2023-04-21T16:19:07.286Z,5.30
2023-04-21T16:21:35.452Z,5.40
2023-04-21T16:24:05.967Z,6.00
2023-04-21T16:26:35.716Z,5.63
2023-04-21T16:29:03.615Z,5.80
2023-04-21T16:31:31.833Z,5.80
2023-04-21T16:34:00.761Z,5.70
2023-04-21T16:36:31.178Z,5.53
2023-04-21T16:38:59.040Z,6.17
2023-04-21T16:41:27.154Z,5.83
2023-04-21T16:43:54.873Z,5.13
2023-04-21T16:46:22.863Z,5.33
2023-04-21T16:48:50.810Z,6.33
2023-04-21T16:51:18.802Z,5.93
2023-04-21T16:53:48.172Z,5.00
2023-04-21T16:56:16.078Z,5.47
2023-04-21T16:58:44.020Z,6.83
2023-04-21T17:01:11.716Z,5.33
2023-04-21T17:03:40.190Z,5.27
2023-04-21T17:06:10.729Z,5.20
2023-04-21T17:08:38.974Z,4.73
2023-04-21T17:11:08.268Z,5.67
2023-04-21T17:13:38.907Z,4.93
2023-04-21T17:16:08.178Z,6.10
2023-04-21T17:18:36.553Z,5.00
2023-04-21T17:21:06.322Z,4.80
2023-04-21T17:23:34.020Z,5.03
2023-04-21T17:26:01.850Z,4.90
2023-04-21T17:28:32.129Z,4.70
2023-04-21T17:31:13.780Z,3.70
2023-04-21T17:33:42.754Z,3.63
2023-04-21T17:36:10.736Z,4.13
2023-04-21T17:38:38.672Z,3.70
2023-04-21T17:41:07.633Z,3.60
2023-04-21T17:43:36.757Z,3.23
2023-04-21T17:46:05.356Z,3.60
2023-04-21T17:48:33.106Z,3.43
2023-04-21T17:51:00.960Z,2.77
2023-04-21T17:53:28.654Z,3.40
2023-04-21T17:55:56.554Z,3.30
2023-04-21T17:58:24.262Z,3.07
2023-04-21T18:00:53.682Z,3.10
2023-04-21T18:03:22.110Z,3.93
2023-04-21T18:05:50.697Z,3.47
2023-04-21T18:08:18.930Z,3.40
2023-04-21T18:10:46.898Z,3.53
2023-04-21T18:13:14.769Z,4.57
2023-04-21T18:15:42.544Z,3.37
2023-04-21T18:18:12.296Z,3.20
2023-04-21T18:20:40.465Z,2.90
2023-04-21T18:23:08.925Z,3.33
2023-04-21T18:25:42.659Z,3.33
2023-04-21T18:28:12.480Z,3.77
2023-04-21T18:30:40.793Z,3.60
2023-04-21T18:33:09.500Z,3.90
2023-04-21T18:35:38.922Z,3.50
2023-04-21T18:38:08.181Z,3.67
2023-04-21T18:40:37.255Z,4.03
2023-04-21T18:43:05.299Z,3.80
2023-04-21T18:45:33.831Z,6.87
2023-04-21T18:48:01.641Z,8.17
2023-04-21T18:50:30.594Z,5.40
2023-04-21T18:52:59.930Z,6.60
2023-04-21T18:55:27.868Z,6.00
2023-04-21T18:57:55.770Z,4.50
2023-04-21T19:00:23.804Z,4.33
2023-04-21T19:02:53.182Z,3.57
2023-04-21T19:05:21.490Z,3.70
2023-04-21T19:07:49.675Z,3.80
2023-04-21T19:10:19.699Z,3.40
2023-04-21T19:12:47.414Z,3.33
2023-04-21T19:15:15.760Z,3.30
2023-04-21T19:17:43.867Z,3.20
2023-04-21T19:20:12.887Z,4.53
2023-04-21T19:22:41.269Z,8.53
2023-04-21T19:25:09.637Z,3.47
2023-04-21T19:27:39.256Z,4.17
2023-04-21T19:30:08.405Z,3.93
2023-04-21T19:32:36.262Z,3.50
2023-04-21T19:35:04.373Z,3.33
2023-04-21T19:37:35.052Z,3.37
2023-04-21T19:40:03.310Z,2.97
2023-04-21T19:42:31.515Z,2.63
2023-04-21T19:45:00.577Z,3.30
2023-04-21T19:47:28.449Z,3.97
2023-04-21T19:49:56.392Z,3.80
2023-04-21T19:52:24.408Z,2.50
2023-04-21T19:54:52.397Z,2.40
2023-04-21T19:57:20.471Z,2.40
2023-04-21T19:59:49.123Z,1.80
2023-04-21T20:02:19.487Z,1.97
2023-04-21T20:04:49.001Z,1.80
2023-04-21T20:07:17.476Z,1.57
2023-04-21T20:09:45.595Z,2.20
2023-04-21T20:12:13.349Z,3.00
2023-04-21T20:14:41.209Z,2.40
2023-04-21T20:17:23.815Z,2.50
2023-04-21T20:19:53.027Z,2.80
2023-04-21T20:22:21.040Z,2.77
2023-04-21T20:24:49.626Z,2.50
2023-04-21T20:27:18.240Z,2.77
2023-04-21T20:29:46.624Z,2.83
2023-04-21T20:32:15.301Z,2.40
2023-04-21T20:34:43.101Z,2.90
2023-04-21T20:37:12.496Z,2.57
2023-04-21T20:39:40.746Z,2.70
2023-04-21T20:42:13.247Z,2.70
2023-04-21T20:44:42.666Z,2.70
2023-04-21T20:47:12.097Z,2.73
2023-04-21T20:49:40.656Z,2.53
2023-04-21T20:52:08.637Z,2.40
2023-04-21T20:54:38.461Z,3.00
2023-04-21T20:57:07.554Z,2.80
2023-04-21T20:59:35.795Z,3.00
2023-04-21T21:02:04.153Z,2.80
2023-04-21T21:04:32.980Z,2.83
2023-04-21T21:07:01.685Z,3.00
2023-04-21T21:09:29.438Z,3.10
2023-04-21T21:11:58.972Z,3.33
2023-04-21T21:14:26.739Z,3.00
2023-04-21T21:16:55.283Z,3.10
2023-04-21T21:19:23.076Z,3.20
2023-04-21T21:21:51.431Z,3.00
2023-04-21T21:24:20.283Z,3.20
2023-04-21T21:26:48.633Z,3.43
2023-04-21T21:29:17.748Z,3.80
2023-04-21T21:31:45.555Z,4.10
2023-04-21T21:34:13.257Z,3.50
2023-04-21T21:36:41.390Z,4.27
2023-04-21T21:39:11.324Z,3.73
2023-04-21T21:41:39.906Z,3.40
2023-04-21T21:44:07.699Z,3.57
2023-04-21T21:46:37.308Z,4.43
2023-04-21T21:49:05.059Z,4.13
2023-04-21T21:51:32.910Z,4.13
2023-04-21T21:54:01.146Z,4.30
2023-04-21T21:56:29.185Z,4.00
2023-04-21T21:58:57.149Z,4.17
2023-04-21T22:01:25.456Z,4.20
2023-04-21T22:03:54.736Z,3.80
2023-04-21T22:06:24.440Z,4.47
2023-04-21T22:08:52.325Z,4.30
2023-04-21T22:11:20.639Z,4.30
2023-04-21T22:13:48.640Z,4.07
2023-04-21T22:16:16.826Z,4.30
2023-04-21T22:18:44.890Z,4.77
2023-04-21T22:21:14.069Z,5.00
2023-04-21T22:23:44.405Z,4.43
2023-04-21T22:26:12.090Z,4.80
2023-04-21T22:28:41.746Z,4.40
2023-04-21T22:31:10.249Z,5.37
2023-04-21T22:33:38.399Z,5.63
2023-04-21T22:36:08.544Z,5.60
2023-04-21T22:38:40.148Z,5.33
2023-04-21T22:41:07.958Z,5.50
2023-04-21T22:43:35.941Z,5.90
2023-04-21T22:46:03.671Z,5.43
2023-04-21T22:48:32.884Z,5.73
2023-04-21T22:51:01.440Z,5.27
2023-04-21T22:53:29.358Z,5.77
2023-04-21T22:55:58.443Z,6.10
2023-04-21T22:58:26.750Z,5.67
2023-04-21T23:00:54.736Z,5.67
2023-04-21T23:03:23.356Z,5.30
2023-04-21T23:05:51.408Z,5.23
2023-04-21T23:08:19.043Z,4.93
2023-04-21T23:10:47.381Z,5.43
2023-04-21T23:13:16.531Z,5.13
2023-04-21T23:15:44.254Z,4.97
2023-04-21T23:18:11.934Z,4.97
2023-04-21T23:20:39.899Z,5.10
2023-04-21T23:23:07.707Z,5.30
2023-04-21T23:25:36.069Z,5.57
2023-04-21T23:28:03.877Z,5.70
2023-04-21T23:30:33.120Z,5.57
2023-04-21T23:33:01.347Z,4.80
2023-04-21T23:35:29.267Z,5.60
2023-04-21T23:37:57.530Z,4.90
2023-04-21T23:40:25.361Z,5.63
2023-04-21T23:42:53.027Z,5.60
2023-04-21T23:45:21.150Z,5.87
2023-04-21T23:47:50.257Z,5.93
2023-04-21T23:50:18.129Z,5.53
2023-04-21T23:52:46.196Z,5.37
2023-04-21T23:55:14.014Z,5.30
2023-04-21T23:57:44.500Z,6.27
